Time;durP1;ratioP1;P1;durP2;ratioP2;P2;SDS_P1;SDS_P2;PMS_P1;PMS_P2;Temp;Humidity;BMP_temperature;BMP_pressure;BME280_temperature;BME280_humidity;BME280_pressure;Samples;Min_cycle;Max_cycle;Signal;HPM_P1;HPM_P2
2022/07/09 00:00:06;;;;;;;;;;;;;;;;;;348581;28;909;-72
2022/07/09 00:00:17;;;;;;;;;;;;;;;;;;348495;28;1071;-72
2022/07/09 00:00:27;;;;;;;;;;;;;;;;;;348607;28;909;-72
2022/07/09 00:00:37;;;;;;;;;;;;;;;;;;348600;28;905;-72
2022/07/09 00:00:47;;;;;;;;;;;;;;;;;;348628;28;897;-72
2022/07/09 00:00:58;;;;;;;;;;;;;;;;;;348566;28;913;-72
2022/07/09 00:01:09;;;;;;;;;;;;;;;;;;348664;28;1040;-72
2022/07/09 00:01:19;;;;;;;;;;;;;;;;;;348585;28;778;-72
2022/07/09 00:01:29;;;;;;;;;;;;;;;;;;348547;28;1051;-72
2022/07/09 00:01:39;;;;;;;;;;;;;;;;;;348543;28;830;-72
2022/07/09 00:01:49;;;;;;;;;;;;;;;;;;348569;28;973;-72
2022/07/09 00:02:00;;;;;;;;;;;;;;;;;;348607;28;870;-72
2022/07/09 00:02:10;;;;;;;;;;;;;;;;;;348571;28;1020;-72
2022/07/09 00:02:20;;;;;;;;;;;;;;;;;;348473;28;1329;-72
2022/07/09 00:02:30;;;;;;;;;;;;;;;;;;348436;28;1299;-73
2022/07/09 00:02:41;;;;;;;;;;;;;;;;;;348627;28;849;-72
2022/07/09 00:02:51;;;;;;;;;;;;;;;;;;348667;28;917;-72
2022/07/09 00:03:01;;;;;;;;;;;;;;;;;;348515;28;992;-72
2022/07/09 00:03:11;;;;;;;;;;;;;;;;;;348637;28;840;-72
2022/07/09 00:03:21;;;;;;;;;;;;;;;;;;348512;28;945;-72
2022/07/09 00:03:32;;;;;;;;;;;;;;;;;;348605;28;798;-72
2022/07/09 00:03:42;;;;;;;;;;;;;;;;;;348560;28;1039;-72
2022/07/09 00:03:52;;;;;;;;;;;;;;;;;;348618;28;847;-72
2022/07/09 00:04:02;;;;;;;;;;;;;;;;;;348598;28;937;-72
2022/07/09 00:04:13;;;;;;;;;;;;;;;;;;348606;28;940;-72
2022/07/09 00:04:23;;;;;;;;;;;;;;;;;;348567;28;806;-72
2022/07/09 00:04:33;;;;;;;;;;;;;;;;;;348597;28;928;-72
2022/07/09 00:04:43;;;;;;;;;;;;;;;;;;348646;28;779;-72
2022/07/09 00:04:53;;;;;;;;;;;;;;;;;;348585;28;980;-72
2022/07/09 00:05:04;;;;;;;;;;;;;;;;;;348403;28;929;-72
2022/07/09 00:05:14;;;;;;;;;;;;;;;;;;348372;28;1282;-71
2022/07/09 00:05:24;;;;;;;;;;;;;;;;;;348373;28;924;-72
2022/07/09 00:05:34;;;;;;;;;;;;;;;;;;348453;28;984;-72
2022/07/09 00:05:45;;;;;;;;;;;;;;;;;;348487;28;995;-72
2022/07/09 00:05:55;;;;;;;;;;;;;;;;;;348583;28;929;-72
2022/07/09 00:06:05;;;;;;;;;;;;;;;;;;348560;28;837;-72
2022/07/09 00:06:15;;;;;;;;;;;;;;;;;;348601;28;983;-72
2022/07/09 00:06:26;;;;;;;;;;;;;;;;;;348568;28;914;-72
2022/07/09 00:06:36;;;;;;;;;;;;;;;;;;349771;28;1312;-72
2022/07/09 00:06:46;;;;;;;;;;;;;;;;;;350001;28;944;-72
2022/07/09 00:06:58;;;;;;;;;;;;;;;;;;350010;28;825;-72
2022/07/09 00:07:08;;;;;;;;;;;;;;;;;;349081;28;1714;-72
2022/07/09 00:07:18;;;;;;;;;;;;;;;;;;348548;28;933;-72
2022/07/09 00:07:28;;;;;;;;;;;;;;;;;;347812;28;1577;-72
2022/07/09 00:07:39;;;;;;;;;;;;;;;;;;350229;28;1624;-72
2022/07/09 00:07:49;;;;;;;;;;;;;;;;;;348768;28;1521;-72
2022/07/09 00:07:59;;;;;;;;;;;;;;;;;;349987;28;920;-72
2022/07/09 00:08:10;;;;;;;;;;;;;;;;;;349986;28;976;-72
2022/07/09 00:08:20;;;;;;;;;;;;;;;;;;349906;28;879;-72
2022/07/09 00:08:30;;;;;;;;;;;;;;;;;;350017;28;925;-72
2022/07/09 00:08:40;;;;;;;;;;;;;;;;;;349983;28;901;-72
2022/07/09 00:08:50;;;;;;;;;;;;;;;;;;349969;28;905;-72
2022/07/09 00:09:01;;;;;;;;;;;;;;;;;;350017;28;782;-72
2022/07/09 00:09:13;;;;;;;;;;;;;;;;;;349958;28;889;-72
2022/07/09 00:09:23;;;;;;;;;;;;;;;;;;349985;28;995;-72
2022/07/09 00:09:33;;;;;;;;;;;;;;;;;;349898;28;968;-72
2022/07/09 00:09:43;;;;;;;;;;;;;;;;;;349957;28;957;-72
2022/07/09 00:09:53;;;;;;;;;;;;;;;;;;349962;28;944;-72
2022/07/09 00:10:04;;;;;;;;;;;;;;;;;;349798;28;1134;-72
2022/07/09 00:10:14;;;;;;;;;;;;;;;;;;349999;28;811;-72
2022/07/09 00:10:24;;;;;;;;;;;;;;;;;;349108;28;1440;-72
2022/07/09 00:10:34;;;;;;;;;;;;;;;;;;349925;28;829;-72
2022/07/09 00:10:45;;;;;;;;;;;;;;;;;;349976;28;983;-72
2022/07/09 00:10:55;;;;;;;;;;;;;;;;;;349911;28;1004;-72
2022/07/09 00:11:05;;;;;;;;;;;;;;;;;;350041;28;788;-72
2022/07/09 00:11:15;;;;;;;;;;;;;;;;;;349976;28;937;-72
2022/07/09 00:11:26;;;;;;;;;;;;;;;;;;349967;28;984;-72
2022/07/09 00:11:36;;;;;;;;;;;;;;;;;;349964;28;837;-72
2022/07/09 00:11:46;;;;;;;;;;;;;;;;;;349891;28;916;-72
2022/07/09 00:11:56;;;;;;;;;;;;;;;;;;349850;28;1013;-72
2022/07/09 00:12:07;;;;;;;;;;;;;;;;;;349968;28;1007;-72
2022/07/09 00:12:17;;;;;;;;;;;;;;;;;;349969;28;861;-72
2022/07/09 00:12:27;;;;;;;;;;;;;;;;;;349975;28;972;-72
2022/07/09 00:12:38;;;;;;;;;;;;;;;;;;349989;28;921;-72
2022/07/09 00:12:48;;;;;;;;;;;;;;;;;;349870;28;1004;-72
2022/07/09 00:12:58;;;;;;;;;;;;;;;;;;349952;28;967;-72
2022/07/09 00:13:08;;;;;;;;;;;;;;;;;;349995;28;928;-72
2022/07/09 00:13:18;;;;;;;;;;;;;;;;;;349944;28;829;-72
2022/07/09 00:13:29;;;;;;;;;;;;;;;;;;349955;28;1003;-72
2022/07/09 00:13:39;;;;;;;;;;;;;;;;;;349946;28;980;-72
2022/07/09 00:13:49;;;;;;;;;;;;;;;;;;349911;28;810;-72
2022/07/09 00:13:59;;;;;;;;;;;;;;;;;;349998;28;952;-72
2022/07/09 00:14:10;;;;;;;;;;;;;;;;;;349982;28;956;-72
2022/07/09 00:14:20;;;;;;;;;;;;;;;;;;349939;28;866;-72
2022/07/09 00:14:30;;;;;;;;;;;;;;;;;;349955;28;904;-72
2022/07/09 00:14:41;;;;;;;;;;;;;;;;;;349990;28;995;-72
2022/07/09 00:14:51;;;;;;;;;;;;;;;;;;349911;28;1730;-72
2022/07/09 00:15:01;;;;;;;;;;;;;;;;;;350025;28;812;-72
2022/07/09 00:15:11;;;;;;;;;;;;;;;;;;349948;28;924;-72
2022/07/09 00:15:22;;;;;;;;;;;;;;;;;;349907;28;821;-72
2022/07/09 00:15:32;;;;;;;;;;;;;;;;;;349909;28;932;-72
2022/07/09 00:15:42;;;;;;;;;;;;;;;;;;349969;28;999;-72
2022/07/09 00:15:53;;;;;;;;;;;;;;;;;;349869;28;1134;-72
2022/07/09 00:16:03;;;;;;;;;;;;;;;;;;349957;28;932;-72
2022/07/09 00:16:13;;;;;;;;;;;;;;;;;;349949;28;944;-72
2022/07/09 00:16:23;;;;;;;;;;;;;;;;;;349998;28;871;-72
2022/07/09 00:16:34;;;;;;;;;;;;;;;;;;349881;28;916;-72
2022/07/09 00:16:44;;;;;;;;;;;;;;;;;;349999;28;872;-71
2022/07/09 00:16:54;;;;;;;;;;;;;;;;;;349985;28;917;-72
2022/07/09 00:17:04;;;;;;;;;;;;;;;;;;349923;28;1067;-72
2022/07/09 00:17:15;;;;;;;;;;;;;;;;;;349948;28;963;-72
2022/07/09 00:17:29;;;;;;;;;;;;;;;;;;349918;28;1307;-72
2022/07/09 00:17:40;;;;;;;;;;;;;;;;;;349972;28;995;-72
2022/07/09 00:17:50;;;;;;;;;;;;;;;;;;349875;28;1000;-72
2022/07/09 00:18:00;;;;;;;;;;;;;;;;;;350005;28;941;-72
2022/07/09 00:18:10;;;;;;;;;;;;;;;;;;349969;28;1011;-72
2022/07/09 00:18:21;;;;;;;;;;;;;;;;;;349988;28;920;-72
2022/07/09 00:18:31;;;;;;;;;;;;;;;;;;349903;28;975;-72
2022/07/09 00:18:41;;;;;;;;;;;;;;;;;;349971;28;932;-72
2022/07/09 00:18:51;;;;;;;;;;;;;;;;;;349941;28;817;-72
2022/07/09 00:19:02;;;;;;;;;;;;;;;;;;349972;28;842;-72
2022/07/09 00:19:12;;;;;;;;;;;;;;;;;;349948;28;869;-72
2022/07/09 00:19:22;;;;;;;;;;;;;;;;;;349973;28;924;-72
2022/07/09 00:19:33;;;;;;;;;;;;;;;;;;349878;28;1997;-72
2022/07/09 00:19:43;;;;;;;;;;;;;;;;;;349964;28;948;-72
2022/07/09 00:19:53;;;;;;;;;;;;;;;;;;349931;28;916;-72
2022/07/09 00:20:05;;;;;;;;;;;;;;;;;;349902;28;790;-72
2022/07/09 00:20:15;;;;;;;;;;;;;;;;;;349955;28;1008;-72
2022/07/09 00:20:25;;;;;;;;;;;;;;;;;;349970;28;883;-72
2022/07/09 00:20:35;;;;;;;;;;;;;;;;;;349935;28;949;-72
2022/07/09 00:20:45;;;;;;;;;;;;;;;;;;349977;28;964;-72
2022/07/09 00:20:56;;;;;;;;;;;;;;;;;;349965;28;991;-72
2022/07/09 00:21:06;;;;;;;;;;;;;;;;;;349904;28;1008;-72
2022/07/09 00:21:16;;;;;;;;;;;;;;;;;;349967;28;976;-72
2022/07/09 00:21:26;;;;;;;;;;;;;;;;;;349955;28;984;-72
2022/07/09 00:21:36;;;;;;;;;;;;;;;;;;349925;28;1104;-72
2022/07/09 00:21:47;;;;;;;;;;;;;;;;;;348694;28;1895;-72
2022/07/09 00:21:57;;;;;;;;;;;;;;;;;;349844;28;833;-72
2022/07/09 00:22:07;;;;;;;;;;;;;;;;;;349913;28;1112;-72
2022/07/09 00:22:17;;;;;;;;;;;;;;;;;;349939;28;1068;-72
2022/07/09 00:22:28;;;;;;;;;;;;;;;;;;349930;28;911;-72
2022/07/09 00:22:38;;;;;;;;;;;;;;;;;;349916;28;1355;-72
2022/07/09 00:22:48;;;;;;;;;;;;;;;;;;349969;28;988;-72
2022/07/09 00:22:58;;;;;;;;;;;;;;;;;;349929;28;1059;-72
2022/07/09 00:23:09;;;;;;;;;;;;;;;;;;349926;28;805;-72
2022/07/09 00:23:19;;;;;;;;;;;;;;;;;;349971;28;897;-72
2022/07/09 00:23:29;;;;;;;;;;;;;;;;;;349985;28;810;-72
2022/07/09 00:23:39;;;;;;;;;;;;;;;;;;349934;28;948;-72
2022/07/09 00:23:49;;;;;;;;;;;;;;;;;;349937;28;820;-72
2022/07/09 00:24:00;;;;;;;;;;;;;;;;;;349969;28;929;-72
2022/07/09 00:24:10;;;;;;;;;;;;;;;;;;349915;28;960;-72
2022/07/09 00:24:20;;;;;;;;;;;;;;;;;;349969;28;802;-72
2022/07/09 00:24:30;;;;;;;;;;;;;;;;;;349901;28;921;-72
2022/07/09 00:24:40;;;;;;;;;;;;;;;;;;349964;28;842;-72
2022/07/09 00:24:51;;;;;;;;;;;;;;;;;;349963;28;789;-72
2022/07/09 00:25:01;;;;;;;;;;;;;;;;;;349977;28;964;-72
2022/07/09 00:25:12;;;;;;;;;;;;;;;;;;349988;28;879;-72
2022/07/09 00:25:22;;;;;;;;;;;;;;;;;;349954;28;975;-72
2022/07/09 00:25:32;;;;;;;;;;;;;;;;;;349947;28;971;-72
2022/07/09 00:25:42;;;;;;;;;;;;;;;;;;350010;28;1012;-72
2022/07/09 00:25:52;;;;;;;;;;;;;;;;;;349927;28;996;-72
2022/07/09 00:26:03;;;;;;;;;;;;;;;;;;350000;28;963;-72
2022/07/09 00:26:13;;;;;;;;;;;;;;;;;;349903;28;987;-72
2022/07/09 00:26:23;;;;;;;;;;;;;;;;;;349999;28;798;-72
2022/07/09 00:26:33;;;;;;;;;;;;;;;;;;349898;28;980;-72
2022/07/09 00:26:43;;;;;;;;;;;;;;;;;;349898;28;1049;-72
2022/07/09 00:26:54;;;;;;;;;;;;;;;;;;349979;28;881;-72
2022/07/09 00:27:04;;;;;;;;;;;;;;;;;;349987;28;921;-72
2022/07/09 00:27:14;;;;;;;;;;;;;;;;;;349912;28;976;-72
2022/07/09 00:27:24;;;;;;;;;;;;;;;;;;349980;28;988;-72
2022/07/09 00:27:35;;;;;;;;;;;;;;;;;;349972;28;996;-72
2022/07/09 00:27:45;;;;;;;;;;;;;;;;;;349979;28;857;-72
2022/07/09 00:27:55;;;;;;;;;;;;;;;;;;349897;28;944;-72
2022/07/09 00:28:05;;;;;;;;;;;;;;;;;;349957;28;936;-72
2022/07/09 00:28:15;;;;;;;;;;;;;;;;;;349924;28;932;-72
2022/07/09 00:28:26;;;;;;;;;;;;;;;;;;349282;28;1812;-72
2022/07/09 00:28:36;;;;;;;;;;;;;;;;;;348676;28;1558;-72
2022/07/09 00:28:46;;;;;;;;;;;;;;;;;;348579;28;979;-72
2022/07/09 00:28:57;;;;;;;;;;;;;;;;;;348545;28;991;-72
2022/07/09 00:29:07;;;;;;;;;;;;;;;;;;348619;28;987;-72
2022/07/09 00:29:17;;;;;;;;;;;;;;;;;;348564;28;893;-72
2022/07/09 00:29:27;;;;;;;;;;;;;;;;;;348549;28;1059;-72
2022/07/09 00:29:37;;;;;;;;;;;;;;;;;;348609;28;817;-72
2022/07/09 00:29:48;;;;;;;;;;;;;;;;;;348578;28;913;-72
2022/07/09 00:29:58;;;;;;;;;;;;;;;;;;348533;28;975;-72
2022/07/09 00:30:08;;;;;;;;;;;;;;;;;;348586;28;999;-72
2022/07/09 00:30:19;;;;;;;;;;;;;;;;;;348601;28;983;-72
2022/07/09 00:30:29;;;;;;;;;;;;;;;;;;348513;28;908;-72
2022/07/09 00:30:39;;;;;;;;;;;;;;;;;;348541;28;932;-72
2022/07/09 00:30:49;;;;;;;;;;;;;;;;;;348558;28;1096;-72
2022/07/09 00:31:00;;;;;;;;;;;;;;;;;;348616;28;928;-71
2022/07/09 00:31:10;;;;;;;;;;;;;;;;;;348556;28;961;-72
2022/07/09 00:31:20;;;;;;;;;;;;;;;;;;348583;28;877;-72
2022/07/09 00:31:31;;;;;;;;;;;;;;;;;;348537;28;984;-72
2022/07/09 00:31:41;;;;;;;;;;;;;;;;;;348593;28;853;-72
2022/07/09 00:31:51;;;;;;;;;;;;;;;;;;348574;28;983;-72
2022/07/09 00:32:01;;;;;;;;;;;;;;;;;;348588;28;936;-72
2022/07/09 00:32:12;;;;;;;;;;;;;;;;;;348505;28;991;-72
2022/07/09 00:32:22;;;;;;;;;;;;;;;;;;348587;28;792;-72
2022/07/09 00:32:32;;;;;;;;;;;;;;;;;;348543;28;975;-72
2022/07/09 00:32:42;;;;;;;;;;;;;;;;;;348552;28;1058;-72
2022/07/09 00:32:52;;;;;;;;;;;;;;;;;;348527;28;936;-72
2022/07/09 00:33:03;;;;;;;;;;;;;;;;;;348547;28;822;-72
2022/07/09 00:33:13;;;;;;;;;;;;;;;;;;348578;28;912;-72
2022/07/09 00:33:23;;;;;;;;;;;;;;;;;;348579;28;952;-72
2022/07/09 00:33:33;;;;;;;;;;;;;;;;;;348593;28;928;-72
2022/07/09 00:33:43;;;;;;;;;;;;;;;;;;348582;28;909;-72
2022/07/09 00:33:54;;;;;;;;;;;;;;;;;;348494;28;1003;-72
2022/07/09 00:34:04;;;;;;;;;;;;;;;;;;348623;28;933;-72
2022/07/09 00:34:14;;;;;;;;;;;;;;;;;;348551;28;1015;-72
2022/07/09 00:34:24;;;;;;;;;;;;;;;;;;348589;28;928;-72
2022/07/09 00:34:34;;;;;;;;;;;;;;;;;;348532;28;798;-72
2022/07/09 00:34:45;;;;;;;;;;;;;;;;;;348549;28;929;-72
2022/07/09 00:34:55;;;;;;;;;;;;;;;;;;348548;28;849;-72
2022/07/09 00:35:06;;;;;;;;;;;;;;;;;;348535;28;1035;-72
2022/07/09 00:35:16;;;;;;;;;;;;;;;;;;348577;28;933;-72
2022/07/09 00:35:26;;;;;;;;;;;;;;;;;;348642;28;849;-72
2022/07/09 00:35:36;;;;;;;;;;;;;;;;;;348515;28;964;-72
2022/07/09 00:35:46;;;;;;;;;;;;;;;;;;348600;28;937;-72
2022/07/09 00:35:57;;;;;;;;;;;;;;;;;;348562;28;925;-72
2022/07/09 00:36:07;;;;;;;;;;;;;;;;;;348574;28;855;-72
2022/07/09 00:36:17;;;;;;;;;;;;;;;;;;348529;28;1129;-72
2022/07/09 00:36:27;;;;;;;;;;;;;;;;;;348550;28;857;-72
2022/07/09 00:36:38;;;;;;;;;;;;;;;;;;348560;28;901;-72
2022/07/09 00:36:48;;;;;;;;;;;;;;;;;;348593;28;952;-72
2022/07/09 00:36:58;;;;;;;;;;;;;;;;;;348582;28;908;-72
2022/07/09 00:37:09;;;;;;;;;;;;;;;;;;348625;28;944;-72
2022/07/09 00:37:19;;;;;;;;;;;;;;;;;;348573;28;932;-72
2022/07/09 00:37:29;;;;;;;;;;;;;;;;;;348046;28;1569;-72
2022/07/09 00:37:39;;;;;;;;;;;;;;;;;;349925;28;892;-72
2022/07/09 00:37:50;;;;;;;;;;;;;;;;;;349964;28;909;-72
2022/07/09 00:38:00;;;;;;;;;;;;;;;;;;349952;28;845;-72
2022/07/09 00:38:10;;;;;;;;;;;;;;;;;;349934;28;908;-72
2022/07/09 00:38:20;;;;;;;;;;;;;;;;;;349944;28;924;-72
2022/07/09 00:38:30;;;;;;;;;;;;;;;;;;349908;28;1063;-72
2022/07/09 00:38:41;;;;;;;;;;;;;;;;;;349932;28;923;-72
2022/07/09 00:38:51;;;;;;;;;;;;;;;;;;349783;28;1011;-72
2022/07/09 00:39:01;;;;;;;;;;;;;;;;;;349868;28;925;-72
2022/07/09 00:39:11;;;;;;;;;;;;;;;;;;350023;28;852;-72
2022/07/09 00:39:21;;;;;;;;;;;;;;;;;;349964;28;995;-72
2022/07/09 00:39:32;;;;;;;;;;;;;;;;;;349859;28;1973;-72
2022/07/09 00:39:42;;;;;;;;;;;;;;;;;;350029;28;789;-72
2022/07/09 00:39:52;;;;;;;;;;;;;;;;;;349908;28;793;-72
2022/07/09 00:40:03;;;;;;;;;;;;;;;;;;349955;28;766;-72
2022/07/09 00:40:13;;;;;;;;;;;;;;;;;;350036;28;967;-72
2022/07/09 00:40:23;;;;;;;;;;;;;;;;;;349969;28;921;-72
2022/07/09 00:40:34;;;;;;;;;;;;;;;;;;349967;28;872;-72
2022/07/09 00:40:44;;;;;;;;;;;;;;;;;;349876;28;837;-72
2022/07/09 00:40:54;;;;;;;;;;;;;;;;;;349965;28;785;-72
2022/07/09 00:41:05;;;;;;;;;;;;;;;;;;349943;28;892;-72
2022/07/09 00:41:15;;;;;;;;;;;;;;;;;;349948;28;984;-72
2022/07/09 00:41:25;;;;;;;;;;;;;;;;;;349987;28;972;-72
2022/07/09 00:41:36;;;;;;;;;;;;;;;;;;349979;28;898;-72
2022/07/09 00:41:46;;;;;;;;;;;;;;;;;;349971;28;952;-72
2022/07/09 00:42:05;;;;;;;;;;;;;;;;;;349974;28;908;-72
2022/07/09 00:42:15;;;;;;;;;;;;;;;;;;350009;28;881;-72
2022/07/09 00:42:25;;;;;;;;;;;;;;;;;;349931;28;960;-72
2022/07/09 00:42:35;;;;;;;;;;;;;;;;;;349954;28;1008;-72
2022/07/09 00:42:46;;;;;;;;;;;;;;;;;;349926;28;944;-72
2022/07/09 00:42:56;;;;;;;;;;;;;;;;;;349885;28;1000;-72
2022/07/09 00:43:20;;;;;;;;;;;;;;;;;;349926;28;856;-72
2022/07/09 00:43:30;;;;;;;;;;;;;;;;;;348505;28;1011;-72
2022/07/09 00:43:48;;;;;;;;;;;;;;;;;;348589;28;932;-72
2022/07/09 00:43:58;;;;;;;;;;;;;;;;;;348600;28;928;-72
2022/07/09 00:44:08;;;;;;;;;;;;;;;;;;348602;28;762;-72
2022/07/09 00:44:19;;;;;;;;;;;;;;;;;;348528;28;910;-72
2022/07/09 00:44:29;;;;;;;;;;;;;;;;;;348571;28;932;-72
2022/07/09 00:44:39;;;;;;;;;;;;;;;;;;348555;28;912;-72
2022/07/09 00:44:49;;;;;;;;;;;;;;;;;;348572;28;983;-72
2022/07/09 00:44:59;;;;;;;;;;;;;;;;;;348554;28;810;-72
2022/07/09 00:45:10;;;;;;;;;;;;;;;;;;348485;28;971;-72
2022/07/09 00:45:20;;;;;;;;;;;;;;;;;;348539;28;912;-72
2022/07/09 00:45:30;;;;;;;;;;;;;;;;;;348537;28;1052;-72
2022/07/09 00:45:40;;;;;;;;;;;;;;;;;;348550;28;964;-72
2022/07/09 00:45:50;;;;;;;;;;;;;;;;;;348596;28;859;-72
2022/07/09 00:46:01;;;;;;;;;;;;;;;;;;348490;28;960;-72
2022/07/09 00:46:11;;;;;;;;;;;;;;;;;;348531;28;857;-72
2022/07/09 00:46:21;;;;;;;;;;;;;;;;;;348564;28;968;-72
2022/07/09 00:46:31;;;;;;;;;;;;;;;;;;348592;28;953;-72
2022/07/09 00:46:42;;;;;;;;;;;;;;;;;;348574;28;917;-72
2022/07/09 00:46:52;;;;;;;;;;;;;;;;;;348497;28;1071;-72
2022/07/09 00:47:03;;;;;;;;;;;;;;;;;;348533;28;913;-72
2022/07/09 00:47:13;;;;;;;;;;;;;;;;;;348575;28;913;-72
2022/07/09 00:47:24;;;;;;;;;;;;;;;;;;348502;28;991;-72
2022/07/09 00:47:34;;;;;;;;;;;;;;;;;;348511;28;1152;-72
2022/07/09 00:47:44;;;;;;;;;;;;;;;;;;348704;28;1237;-72
2022/07/09 00:47:54;;;;;;;;;;;;;;;;;;349945;28;829;-72
2022/07/09 00:48:05;;;;;;;;;;;;;;;;;;349925;28;991;-72
2022/07/09 00:48:15;;;;;;;;;;;;;;;;;;349869;28;967;-72
2022/07/09 00:48:26;;;;;;;;;;;;;;;;;;349971;28;861;-72
2022/07/09 00:48:36;;;;;;;;;;;;;;;;;;349950;28;1003;-72
2022/07/09 00:48:46;;;;;;;;;;;;;;;;;;349925;28;861;-72
2022/07/09 00:48:56;;;;;;;;;;;;;;;;;;349952;28;971;-72
2022/07/09 00:49:07;;;;;;;;;;;;;;;;;;349942;28;885;-72
2022/07/09 00:49:17;;;;;;;;;;;;;;;;;;349840;28;901;-72
2022/07/09 00:49:28;;;;;;;;;;;;;;;;;;349985;28;892;-72
2022/07/09 00:49:40;;;;;;;;;;;;;;;;;;349937;28;944;-72
2022/07/09 00:49:51;;;;;;;;;;;;;;;;;;349895;28;853;-72
2022/07/09 00:50:03;;;;;;;;;;;;;;;;;;349996;28;932;-72
2022/07/09 00:50:13;;;;;;;;;;;;;;;;;;349880;28;1042;-72
2022/07/09 00:50:24;;;;;;;;;;;;;;;;;;348501;28;1829;-72
2022/07/09 00:50:34;;;;;;;;;;;;;;;;;;348552;28;999;-72
2022/07/09 00:50:44;;;;;;;;;;;;;;;;;;348515;28;956;-72
2022/07/09 00:50:54;;;;;;;;;;;;;;;;;;348543;28;925;-72
2022/07/09 00:51:05;;;;;;;;;;;;;;;;;;348559;28;972;-72
2022/07/09 00:51:17;;;;;;;;;;;;;;;;;;348442;28;809;-72
2022/07/09 00:51:27;;;;;;;;;;;;;;;;;;348585;28;1004;-71
2022/07/09 00:51:38;;;;;;;;;;;;;;;;;;348363;28;1861;-72
2022/07/09 00:51:48;;;;;;;;;;;;;;;;;;349830;28;984;-72
2022/07/09 00:51:59;;;;;;;;;;;;;;;;;;349977;28;936;-72
2022/07/09 00:52:11;;;;;;;;;;;;;;;;;;350021;28;833;-72
2022/07/09 00:52:22;;;;;;;;;;;;;;;;;;349872;28;929;-72
2022/07/09 00:52:32;;;;;;;;;;;;;;;;;;349961;28;845;-72
2022/07/09 00:52:43;;;;;;;;;;;;;;;;;;350005;28;864;-72
2022/07/09 00:52:53;;;;;;;;;;;;;;;;;;349918;28;921;-72
2022/07/09 00:53:04;;;;;;;;;;;;;;;;;;349970;28;912;-72
2022/07/09 00:53:18;;;;;;;;;;;;;;;;;;349945;28;833;-72
2022/07/09 00:53:29;;;;;;;;;;;;;;;;;;349828;28;1143;-72
2022/07/09 00:53:39;;;;;;;;;;;;;;;;;;349940;28;940;-72
2022/07/09 00:53:49;;;;;;;;;;;;;;;;;;349969;28;952;-72
2022/07/09 00:54:00;;;;;;;;;;;;;;;;;;349922;28;964;-72
2022/07/09 00:54:10;;;;;;;;;;;;;;;;;;349958;28;913;-72
2022/07/09 00:54:21;;;;;;;;;;;;;;;;;;349944;28;995;-72
2022/07/09 00:54:31;;;;;;;;;;;;;;;;;;349922;28;888;-72
2022/07/09 00:54:42;;;;;;;;;;;;;;;;;;350039;28;813;-72
2022/07/09 00:54:52;;;;;;;;;;;;;;;;;;349947;28;802;-72
2022/07/09 00:55:03;;;;;;;;;;;;;;;;;;349904;28;893;-72
2022/07/09 00:55:13;;;;;;;;;;;;;;;;;;349917;28;937;-72
2022/07/09 00:55:25;;;;;;;;;;;;;;;;;;349856;28;908;-72
2022/07/09 00:55:37;;;;;;;;;;;;;;;;;;349947;28;983;-72
2022/07/09 00:55:47;;;;;;;;;;;;;;;;;;350003;28;972;-72
2022/07/09 00:55:58;;;;;;;;;;;;;;;;;;349937;28;1036;-72
2022/07/09 00:56:08;;;;;;;;;;;;;;;;;;349934;28;825;-72
2022/07/09 00:56:19;;;;;;;;;;;;;;;;;;349930;28;924;-71
2022/07/09 00:56:29;;;;;;;;;;;;;;;;;;349982;28;790;-72
2022/07/09 00:56:40;;;;;;;;;;;;;;;;;;349973;28;924;-72
2022/07/09 00:56:52;;;;;;;;;;;;;;;;;;349940;28;952;-72
2022/07/09 00:57:05;;;;;;;;;;;;;;;;;;349888;28;802;-72
2022/07/09 00:57:16;;;;;;;;;;;;;;;;;;349955;28;913;-72
2022/07/09 00:57:26;;;;;;;;;;;;;;;;;;349880;28;917;-72
2022/07/09 00:57:37;;;;;;;;;;;;;;;;;;349901;28;945;-72
2022/07/09 00:57:48;;;;;;;;;;;;;;;;;;349861;28;1083;-72
2022/07/09 00:57:58;;;;;;;;;;;;;;;;;;349924;28;921;-72
2022/07/09 00:58:08;;;;;;;;;;;;;;;;;;349940;28;988;-72
2022/07/09 00:58:19;;;;;;;;;;;;;;;;;;349944;28;932;-71
2022/07/09 00:58:30;;;;;;;;;;;;;;;;;;349991;28;829;-71
2022/07/09 00:58:41;;;;;;;;;;;;;;;;;;349903;28;995;-71
2022/07/09 00:58:52;;;;;;;;;;;;;;;;;;349982;28;929;-72
2022/07/09 00:59:07;;;;;;;;;;;;;;;;;;349969;28;992;-72
2022/07/09 00:59:18;;;;;;;;;;;;;;;;;;349951;28;939;-72
2022/07/09 00:59:28;;;;;;;;;;;;;;;;;;349763;28;1894;-72
2022/07/09 00:59:39;;;;;;;;;;;;;;;;;;349885;28;956;-72
2022/07/09 00:59:49;;;;;;;;;;;;;;;;;;349970;28;873;-72
2022/07/09 00:59:59;;;;;;;;;;;;;;;;;;349957;28;932;-71
2022/07/09 01:00:10;;;;;;;;;;;;;;;;;;349917;28;1011;-71
2022/07/09 01:00:20;;;;;;;;;;;;;;;;;;349894;28;897;-72
2022/07/09 01:00:30;;;;;;;;;;;;;;;;;;349889;28;937;-72
2022/07/09 01:00:41;;;;;;;;;;;;;;;;;;349922;28;821;-71
2022/07/09 01:00:51;;;;;;;;;;;;;;;;;;349899;28;1004;-72
2022/07/09 01:01:01;;;;;;;;;;;;;;;;;;349980;28;837;-71
2022/07/09 01:01:12;;;;;;;;;;;;;;;;;;349869;28;956;-72
2022/07/09 01:01:22;;;;;;;;;;;;;;;;;;349955;28;971;-72
2022/07/09 01:01:32;;;;;;;;;;;;;;;;;;349919;28;995;-72
2022/07/09 01:01:42;;;;;;;;;;;;;;;;;;349901;28;924;-71
2022/07/09 01:01:53;;;;;;;;;;;;;;;;;;349930;28;798;-72
2022/07/09 01:02:06;;;;;;;;;;;;;;;;;;349852;28;1040;-72
2022/07/09 01:02:18;;;;;;;;;;;;;;;;;;349942;28;1058;-71
2022/07/09 01:02:28;;;;;;;;;;;;;;;;;;349913;28;1023;-72
2022/07/09 01:02:39;;;;;;;;;;;;;;;;;;349758;28;1280;-72
2022/07/09 01:02:49;;;;;;;;;;;;;;;;;;349884;28;976;-72
2022/07/09 01:03:00;;;;;;;;;;;;;;;;;;349932;28;996;-72
2022/07/09 01:03:10;;;;;;;;;;;;;;;;;;349948;28;952;-72
2022/07/09 01:03:20;;;;;;;;;;;;;;;;;;349946;28;936;-72
2022/07/09 01:03:30;;;;;;;;;;;;;;;;;;349853;28;952;-72
2022/07/09 01:03:41;;;;;;;;;;;;;;;;;;349860;28;992;-72
2022/07/09 01:03:51;;;;;;;;;;;;;;;;;;349940;28;944;-72
2022/07/09 01:04:02;;;;;;;;;;;;;;;;;;349895;28;1059;-72
2022/07/09 01:04:12;;;;;;;;;;;;;;;;;;349922;28;1008;-72
2022/07/09 01:04:22;;;;;;;;;;;;;;;;;;349922;28;944;-72
2022/07/09 01:04:32;;;;;;;;;;;;;;;;;;349911;28;921;-72
2022/07/09 01:04:43;;;;;;;;;;;;;;;;;;349921;28;945;-72
2022/07/09 01:04:53;;;;;;;;;;;;;;;;;;349899;28;917;-72
2022/07/09 01:05:03;;;;;;;;;;;;;;;;;;349952;28;838;-72
2022/07/09 01:05:14;;;;;;;;;;;;;;;;;;349921;28;920;-72
2022/07/09 01:05:24;;;;;;;;;;;;;;;;;;349925;28;932;-72
2022/07/09 01:05:37;;;;;;;;;;;;;;;;;;349873;28;980;-72
2022/07/09 01:05:48;;;;;;;;;;;;;;;;;;349894;28;1007;-71
2022/07/09 01:05:58;;;;;;;;;;;;;;;;;;349910;28;1007;-72
2022/07/09 01:06:09;;;;;;;;;;;;;;;;;;349953;28;774;-72
2022/07/09 01:06:19;;;;;;;;;;;;;;;;;;349862;28;980;-72
2022/07/09 01:06:29;;;;;;;;;;;;;;;;;;348875;28;2118;-72
2022/07/09 01:06:39;;;;;;;;;;;;;;;;;;348341;28;1591;-72
2022/07/09 01:06:49;;;;;;;;;;;;;;;;;;348525;28;1354;-72
2022/07/09 01:07:00;;;;;;;;;;;;;;;;;;348569;28;845;-72
2022/07/09 01:07:10;;;;;;;;;;;;;;;;;;348526;28;854;-72
2022/07/09 01:07:20;;;;;;;;;;;;;;;;;;348592;28;960;-72
2022/07/09 01:07:30;;;;;;;;;;;;;;;;;;348139;28;1542;-72
2022/07/09 01:07:41;;;;;;;;;;;;;;;;;;348892;28;1555;-72
2022/07/09 01:07:52;;;;;;;;;;;;;;;;;;349869;28;1179;-72
2022/07/09 01:08:03;;;;;;;;;;;;;;;;;;349847;28;778;-72
2022/07/09 01:08:14;;;;;;;;;;;;;;;;;;349924;28;972;-72
2022/07/09 01:08:24;;;;;;;;;;;;;;;;;;349966;28;936;-72
2022/07/09 01:08:35;;;;;;;;;;;;;;;;;;349854;28;964;-72
2022/07/09 01:08:45;;;;;;;;;;;;;;;;;;349910;28;916;-72
2022/07/09 01:08:55;;;;;;;;;;;;;;;;;;349839;28;972;-72
2022/07/09 01:09:05;;;;;;;;;;;;;;;;;;349935;28;944;-72
2022/07/09 01:09:16;;;;;;;;;;;;;;;;;;349989;28;872;-72
2022/07/09 01:09:27;;;;;;;;;;;;;;;;;;350062;28;873;-72
2022/07/09 01:09:38;;;;;;;;;;;;;;;;;;349979;28;819;-72
2022/07/09 01:09:48;;;;;;;;;;;;;;;;;;349877;28;936;-72
2022/07/09 01:09:58;;;;;;;;;;;;;;;;;;349865;28;1070;-72
2022/07/09 01:10:09;;;;;;;;;;;;;;;;;;349891;28;1132;-72
2022/07/09 01:10:19;;;;;;;;;;;;;;;;;;349963;28;853;-72
2022/07/09 01:10:30;;;;;;;;;;;;;;;;;;349992;28;859;-71
2022/07/09 01:10:40;;;;;;;;;;;;;;;;;;349872;28;991;-72
2022/07/09 01:10:51;;;;;;;;;;;;;;;;;;349953;28;975;-72
2022/07/09 01:11:01;;;;;;;;;;;;;;;;;;349912;28;1027;-72
2022/07/09 01:11:11;;;;;;;;;;;;;;;;;;349296;28;1856;-72
2022/07/09 01:11:22;;;;;;;;;;;;;;;;;;348614;28;1570;-72
2022/07/09 01:11:32;;;;;;;;;;;;;;;;;;348520;28;988;-72
2022/07/09 01:11:42;;;;;;;;;;;;;;;;;;348480;28;1131;-72
2022/07/09 01:11:53;;;;;;;;;;;;;;;;;;348553;28;856;-72
2022/07/09 01:12:03;;;;;;;;;;;;;;;;;;348474;28;1078;-72
2022/07/09 01:12:14;;;;;;;;;;;;;;;;;;348552;28;983;-72
2022/07/09 01:12:24;;;;;;;;;;;;;;;;;;348522;28;818;-72
2022/07/09 01:12:35;;;;;;;;;;;;;;;;;;348566;28;793;-72
2022/07/09 01:12:45;;;;;;;;;;;;;;;;;;348522;28;941;-72
2022/07/09 01:12:55;;;;;;;;;;;;;;;;;;348573;28;979;-72
2022/07/09 01:13:06;;;;;;;;;;;;;;;;;;348518;28;980;-72
2022/07/09 01:13:16;;;;;;;;;;;;;;;;;;348526;28;995;-72
2022/07/09 01:13:27;;;;;;;;;;;;;;;;;;348550;28;917;-72
2022/07/09 01:13:37;;;;;;;;;;;;;;;;;;348546;28;961;-72
2022/07/09 01:13:47;;;;;;;;;;;;;;;;;;348495;28;1048;-72
2022/07/09 01:13:57;;;;;;;;;;;;;;;;;;348528;28;999;-72
2022/07/09 01:14:08;;;;;;;;;;;;;;;;;;348458;28;1006;-72
2022/07/09 01:14:18;;;;;;;;;;;;;;;;;;348573;28;898;-72
2022/07/09 01:14:28;;;;;;;;;;;;;;;;;;348545;28;944;-72
2022/07/09 01:14:39;;;;;;;;;;;;;;;;;;348534;28;921;-72
2022/07/09 01:14:49;;;;;;;;;;;;;;;;;;348566;28;979;-72
2022/07/09 01:14:59;;;;;;;;;;;;;;;;;;348500;28;829;-72